Time;durP1;ratioP1;P1;durP2;ratioP2;P2;SDS_P1;SDS_P2;PMS_P1;PMS_P2;Temp;Humidity;BMP_temperature;BMP_pressure;BME280_temperature;BME280_humidity;BME280_pressure;Samples;Min_cycle;Max_cycle;Signal;HPM_P1;HPM_P2
2022/02/28 07:20:50;;;;;;;;;8.50;8.50;;;;;17.22;51.17;102535.84;5097381;27;45589;-77
2022/02/28 07:23:16;;;;;;;;;10.50;8.00;;;;;17.45;51.31;102541.78;5084549;27;45466;-70
2022/02/28 07:25:42;;;;;;;;;13.00;8.50;;;;;17.72;51.50;102543.03;5085872;27;45657;-73
2022/02/28 07:28:07;;;;;;;;;10.25;8.75;;;;;18.01;51.09;102538.69;5085052;27;45392;-72
2022/02/28 07:30:32;;;;;;;;;9.25;7.00;;;;;18.37;50.48;102536.69;5083927;27;45566;-73
2022/02/28 07:32:58;;;;;;;;;7.00;7.00;;;;;18.73;50.65;102533.69;5086177;27;45355;-74
2022/02/28 07:35:23;;;;;;;;;8.75;7.00;;;;;19.09;49.73;102522.53;5088772;27;45597;-74
2022/02/28 07:37:48;;;;;;;;;10.25;8.00;;;;;19.46;49.21;102526.56;5089705;27;45624;-75
2022/02/28 07:40:14;;;;;;;;;9.00;8.00;;;;;19.79;48.82;102528.06;5078438;27;46283;-75
2022/02/28 07:42:40;;;;;;;;;8.50;8.50;;;;;20.12;48.14;102532.19;5081407;27;45505;-78
2022/02/28 07:45:07;;;;;;;;;9.25;8.00;;;;;20.43;48.28;102531.13;5087546;27;45642;-75
2022/02/28 07:47:33;;;;;;;;;6.75;6.75;;;;;20.70;47.32;102530.19;5086970;27;45339;-77
2022/02/28 07:49:58;;;;;;;;;9.25;9.00;;;;;20.96;47.66;102532.94;5090687;27;46320;-76
2022/02/28 07:52:24;;;;;;;;;11.75;8.25;;;;;21.20;46.94;102535.72;5083039;27;45468;-77
2022/02/28 07:54:49;;;;;;;;;7.00;7.00;;;;;21.43;46.73;102525.13;5090079;27;45730;-76
2022/02/28 07:57:15;;;;;;;;;7.25;7.00;;;;;21.65;46.24;102534.34;5089128;27;45660;-77
2022/02/28 07:59:41;;;;;;;;;6.75;6.75;;;;;21.87;45.59;102528.28;5084240;27;45407;-77
2022/02/28 08:02:07;;;;;;;;;7.00;7.00;;;;;22.09;45.28;102534.75;5092260;27;45558;-78
2022/02/28 08:04:33;;;;;;;;;9.00;6.33;;;;;22.28;44.76;102552.31;5089595;27;45644;-77
2022/02/28 08:06:58;;;;;;;;;6.00;5.00;;;;;22.44;45.10;102555.56;5088325;27;45814;-77
2022/02/28 08:09:24;;;;;;;;;9.33;8.00;;;;;22.60;44.50;102562.56;5088129;27;46576;-78
2022/02/28 08:11:51;;;;;;;;;8.00;8.00;;;;;22.77;43.90;102567.50;5089447;27;45406;-77
2022/02/28 08:14:16;;;;;;;;;8.67;7.33;;;;;22.89;43.95;102562.97;5096376;27;45473;-79
2022/02/28 08:16:42;;;;;;;;;8.00;6.67;;;;;22.99;43.91;102568.53;5088629;27;45378;-78
2022/02/28 08:19:07;;;;;;;;;7.00;7.00;;;;;23.09;43.21;102562.41;5085957;27;46390;-78
2022/02/28 08:21:32;;;;;;;;;5.00;5.00;;;;;23.20;43.67;102567.81;5089999;27;45521;-81
2022/02/28 08:23:57;;;;;;;;;5.33;5.33;;;;;23.23;43.17;102554.03;5089162;27;45529;-81
2022/02/28 08:26:23;;;;;;;;;7.33;6.00;;;;;23.32;43.20;102554.25;5087478;27;45432;-76
2022/02/28 08:28:48;;;;;;;;;8.33;7.00;;;;;23.37;42.98;102550.25;5085134;27;49602;-76
2022/02/28 08:31:13;;;;;;;;;7.00;7.00;;;;;23.45;43.24;102555.03;5082136;27;45386;-74
2022/02/28 08:33:39;;;;;;;;;9.33;8.33;;;;;23.51;42.57;102550.97;5077242;27;45474;-79
2022/02/28 08:36:04;;;;;;;;;5.33;5.33;;;;;23.53;42.47;102535.44;5082782;27;45628;-78
2022/02/28 08:38:30;;;;;;;;;6.00;6.00;;;;;23.61;42.26;102542.94;5085804;27;47226;-78
2022/02/28 08:40:55;;;;;;;;;6.67;6.67;;;;;23.65;42.02;102528.16;5072191;27;45560;-78
2022/02/28 08:43:20;;;;;;;;;7.00;7.00;;;;;23.70;42.10;102520.50;5071668;27;45957;-81
2022/02/28 08:45:46;;;;;;;;;7.00;7.00;;;;;23.73;41.49;102522.97;5076451;27;45730;-72
2022/02/28 08:48:11;;;;;;;;;8.00;7.33;;;;;23.72;40.88;102525.78;5074335;27;47001;-74
2022/02/28 08:50:37;;;;;;;;;8.33;6.00;;;;;23.74;41.49;102526.56;5088454;27;45433;-74
2022/02/28 08:53:03;;;;;;;;;4.33;4.33;;;;;23.76;41.18;102525.44;5107147;27;45830;-75
2022/02/28 08:55:28;;;;;;;;;7.00;7.00;;;;;23.79;41.23;102530.59;5070959;27;50365;-74
2022/02/28 08:57:53;;;;;;;;;7.00;7.00;;;;;23.86;41.36;102530.09;5080192;27;45582;-75
2022/02/28 09:00:19;;;;;;;;;8.00;8.00;;;;;23.91;41.36;102522.44;5078696;27;45467;-74
2022/02/28 09:02:44;;;;;;;;;7.67;6.67;;;;;23.94;40.97;102523.03;5061868;27;45995;-75
2022/02/28 09:05:10;;;;;;;;;5.33;5.33;;;;;24.01;40.90;102534.22;5060885;27;45537;-74
2022/02/28 09:07:36;;;;;;;;;8.00;7.67;;;;;24.04;40.96;102533.94;5063888;27;46580;-74
2022/02/28 09:10:03;;;;;;;;;8.00;6.00;;;;;24.09;40.85;102533.63;5061513;28;45406;-74
2022/02/28 09:12:28;;;;;;;;;7.67;6.00;;;;;24.12;40.83;102527.94;5073534;27;45546;-74
2022/02/28 09:14:53;;;;;;;;;9.33;6.00;;;;;24.19;41.13;102531.84;5075449;27;45430;-74
2022/02/28 09:17:19;;;;;;;;;8.33;5.67;;;;;24.24;40.89;102528.75;5088293;27;47774;-75
2022/02/28 09:19:44;;;;;;;;;6.00;6.00;;;;;24.30;40.99;102525.50;5072332;27;47095;-75
2022/02/28 09:22:10;;;;;;;;;7.33;6.67;;;;;24.37;40.90;102524.97;5076421;27;45785;-77
2022/02/28 09:24:35;;;;;;;;;9.00;6.00;;;;;24.43;40.74;102521.72;5070735;27;45496;-76
2022/02/28 09:27:03;;;;;;;;;6.00;6.00;;;;;24.47;40.71;102517.78;5063776;27;46207;-81
2022/02/28 09:29:29;;;;;;;;;7.00;6.33;;;;;24.48;40.72;102516.78;5062833;27;45445;-76
2022/02/28 09:31:58;;;;;;;;;7.33;7.33;;;;;24.55;40.73;102534.25;5074178;27;45481;-76
2022/02/28 09:34:24;;;;;;;;;7.67;7.00;;;;;24.58;40.35;102522.28;5075048;27;45508;-76
2022/02/28 09:36:51;;;;;;;;;9.00;6.00;;;;;24.66;40.35;102537.91;5073012;27;45948;-76
2022/02/28 09:39:20;;;;;;;;;5.33;5.33;;;;;24.73;40.40;102539.94;5073514;27;45460;-76
2022/02/28 09:41:46;;;;;;;;;6.33;5.67;;;;;24.78;40.16;102547.72;5074434;27;45569;-77
2022/02/28 09:44:14;;;;;;;;;4.67;4.67;;;;;24.80;39.65;102556.56;5073078;27;45580;-76
2022/02/28 09:46:42;;;;;;;;;7.00;7.00;;;;;24.82;39.92;102560.03;5090763;27;48181;-75
2022/02/28 09:49:09;;;;;;;;;8.33;7.00;;;;;24.86;39.98;102569.63;5073006;27;46915;-75
2022/02/28 09:51:35;;;;;;;;;9.33;7.33;;;;;24.91;39.82;102574.69;5073961;27;45395;-75
2022/02/28 09:54:00;;;;;;;;;7.33;6.00;;;;;24.93;39.70;102574.56;5076003;27;45492;-75
2022/02/28 09:56:26;;;;;;;;;5.00;5.00;;;;;24.94;39.80;102563.56;5072471;27;45797;-77
2022/02/28 09:58:51;;;;;;;;;5.00;5.00;;;;;25.00;39.86;102568.44;5094310;27;45968;-78
2022/02/28 10:01:17;;;;;;;;;7.33;6.00;;;;;24.99;39.92;102560.44;5067516;27;45536;-80
2022/02/28 10:03:42;;;;;;;;;6.00;6.00;;;;;25.05;39.19;102567.19;5070773;27;45414;-78
2022/02/28 10:06:07;;;;;;;;;5.33;5.33;;;;;25.03;40.01;102561.00;5071831;27;54799;-77
2022/02/28 10:08:45;;;;;;;;;6.00;6.00;;;;;25.05;39.74;102565.31;5075472;27;45530;-76
2022/02/28 10:11:27;;;;;;;;;7.00;7.00;;;;;25.05;39.84;102567.19;5076470;27;45499;-76
2022/02/28 10:13:54;;;;;;;;;6.33;5.67;;;;;25.04;39.68;102566.31;5068623;27;45557;-77
2022/02/28 10:16:34;;;;;;;;;6.00;6.00;;;;;24.99;39.79;102565.84;5097466;27;46563;-77
2022/02/28 10:19:01;;;;;;;;;6.00;6.00;;;;;24.94;39.88;102570.84;5071766;27;46273;-76
2022/02/28 10:21:48;;;;;;;;;8.00;7.00;;;;;24.91;40.05;102565.66;5070942;27;45805;-77
2022/02/28 10:24:17;;;;;;;;;5.00;5.00;;;;;24.91;40.03;102562.94;5068444;27;45492;-77
2022/02/28 10:26:46;;;;;;;;;7.67;5.67;;;;;24.94;40.16;102557.25;5071217;27;47081;-77
2022/02/28 10:29:14;;;;;;;;;6.67;6.00;;;;;24.94;40.49;102538.25;5066507;27;45460;-77
2022/02/28 10:31:42;;;;;;;;;7.33;7.00;;;;;25.03;40.03;102542.00;5071346;27;45379;-77
2022/02/28 10:34:19;;;;;;;;;7.00;6.67;;;;;25.10;40.05;102535.03;5068799;27;45430;-81
2022/02/28 10:36:57;;;;;;;;;7.00;5.67;;;;;25.23;39.96;102545.66;5063414;27;45487;-80
2022/02/28 10:39:27;;;;;;;;;6.00;5.67;;;;;25.29;39.87;102547.84;5065853;27;45467;-80
2022/02/28 10:41:55;;;;;;;;;6.00;6.00;;;;;25.44;39.86;102553.75;5073896;27;45916;-78
2022/02/28 10:44:22;;;;;;;;;5.67;5.00;;;;;25.52;40.07;102551.22;5075207;27;45276;-79
2022/02/28 10:46:49;;;;;;;;;7.33;6.00;;;;;25.70;39.54;102560.59;5069298;27;45509;-81
2022/02/28 10:49:27;;;;;;;;;12.33;8.00;;;;;25.82;39.40;102559.47;5072272;27;45473;-78
2022/02/28 10:51:57;;;;;;;;;6.33;6.33;;;;;25.95;39.14;102561.06;5072308;27;45560;-78
2022/02/28 10:54:25;;;;;;;;;6.33;6.33;;;;;26.08;38.75;102571.69;5069094;27;45463;-82
2022/02/28 10:57:03;;;;;;;;;9.00;7.67;;;;;26.18;38.74;102570.69;5068489;27;46007;-81
2022/02/28 10:59:52;;;;;;;;;10.00;7.00;;;;;26.28;38.67;102558.97;5094436;27;45433;-76
2022/02/28 11:02:36;;;;;;;;;8.00;7.33;;;;;26.33;38.70;102559.41;5068639;27;45513;-75
2022/02/28 11:05:07;;;;;;;;;9.33;7.67;;;;;26.42;38.80;102544.06;5074438;27;45454;-76
2022/02/28 11:07:40;;;;;;;;;7.00;7.00;;;;;26.48;38.37;102542.63;5086926;27;46365;-76
2022/02/28 11:10:06;;;;;;;;;6.67;5.67;;;;;26.53;38.32;102543.88;5073590;27;45658;-76
2022/02/28 11:12:32;;;;;;;;;9.33;8.67;;;;;26.59;38.63;102547.91;5067887;27;45609;-75
2022/02/28 11:15:02;;;;;;;;;8.00;5.67;;;;;26.60;38.10;102543.34;5065970;27;45743;-74
2022/02/28 11:17:31;;;;;;;;;7.33;7.00;;;;;26.64;38.16;102539.31;5067616;27;45572;-77
2022/02/28 11:19:59;;;;;;;;;7.00;5.00;;;;;26.63;38.01;102545.75;5064136;27;45977;-76
2022/02/28 11:22:24;;;;;;;;;7.33;7.33;;;;;26.62;38.02;102553.06;5070747;27;45604;-76
2022/02/28 11:24:53;;;;;;;;;9.00;7.00;;;;;26.63;37.88;102556.63;5064489;27;45459;-76
2022/02/28 11:27:18;;;;;;;;;12.67;7.33;;;;;26.58;38.25;102547.03;5066231;27;46722;-76
2022/02/28 11:29:48;;;;;;;;;7.67;7.67;;;;;26.58;38.23;102540.75;5069348;27;45625;-76
2022/02/28 11:32:14;;;;;;;;;6.67;6.33;;;;;26.55;37.95;102536.47;5071715;27;45520;-76
2022/02/28 11:34:39;;;;;;;;;9.33;7.00;;;;;26.58;37.93;102538.03;5063485;27;45729;-72
2022/02/28 11:37:05;;;;;;;;;8.67;7.00;;;;;26.62;36.88;102544.03;5068704;27;45576;-76
2022/02/28 11:39:37;;;;;;;;;10.33;8.67;;;;;26.58;36.83;102540.75;5064855;27;45744;-75
2022/02/28 11:42:05;;;;;;;;;8.00;8.00;;;;;26.56;36.31;102545.47;5072227;27;45605;-75
2022/02/28 11:44:36;;;;;;;;;6.00;5.33;;;;;26.54;36.19;102537.47;5072046;27;45543;-76
2022/02/28 11:47:04;;;;;;;;;7.33;7.00;;;;;26.53;36.16;102533.00;5068126;27;45713;-76
2022/02/28 11:49:45;;;;;;;;;9.00;9.00;;;;;26.56;36.02;102532.72;5068900;27;45427;-77
2022/02/28 11:52:31;;;;;;;;;5.33;5.33;;;;;26.62;35.86;102530.41;5066066;27;45602;-77
2022/02/28 11:55:09;;;;;;;;;7.33;6.00;;;;;26.72;36.08;102533.97;5067158;27;45488;-78
2022/02/28 11:57:55;;;;;;;;;10.00;7.00;;;;;26.78;35.57;102536.13;5068678;27;47107;-78
2022/02/28 12:00:39;;;;;;;;;7.33;7.33;;;;;26.81;35.77;102529.53;5072773;27;45529;-78
2022/02/28 12:03:22;;;;;;;;;6.33;6.00;;;;;26.86;35.75;102526.34;5063600;27;45564;-79
2022/02/28 12:05:48;;;;;;;;;9.00;5.00;;;;;26.87;35.26;102522.59;5083269;27;45473;-79
2022/02/28 12:08:18;;;;;;;;;5.67;5.67;;;;;26.88;35.58;102521.59;5081213;27;46243;-80
2022/02/28 12:10:56;;;;;;;;;7.00;7.00;;;;;26.87;35.78;102508.97;5074410;27;45439;-80
2022/02/28 12:13:36;;;;;;;;;6.00;6.00;;;;;26.93;34.91;102511.13;5070588;27;45454;-77
2022/02/28 12:19:28;;;;;;;;;5.00;5.00;;;;;26.61;32.91;102506.91;5077005;27;45559;-74
2022/02/28 12:22:05;;;;;;;;;4.67;4.67;;;;;26.48;31.99;102510.81;5077156;27;46818;-74
2022/02/28 12:24:52;;;;;;;;;8.00;8.00;;;;;26.23;31.05;102504.09;5074972;27;45382;-73
2022/02/28 12:27:17;;;;;;;;;10.00;7.67;;;;;25.91;30.51;102504.22;5075941;28;45737;-73
2022/02/28 12:29:43;;;;;;;;;12.33;11.00;;;;;25.63;30.42;102501.31;5080421;27;47484;-73
2022/02/28 12:32:08;;;;;;;;;11.00;11.00;;;;;25.35;30.21;102495.66;5076764;27;45534;-73
2022/02/28 12:34:35;;;;;;;;;9.67;9.33;;;;;25.09;29.66;102498.84;5074516;27;45830;-73
2022/02/28 12:37:01;;;;;;;;;14.00;11.33;;;;;24.83;30.02;102485.75;5077590;27;45596;-73
2022/02/28 12:39:27;;;;;;;;;12.33;12.33;;;;;24.62;29.83;102483.00;5071134;28;45465;-73
2022/02/28 12:41:56;;;;;;;;;15.33;15.00;;;;;24.39;29.92;102479.59;5065851;27;45457;-73
2022/02/28 12:44:22;;;;;;;;;13.00;12.00;;;;;24.21;29.55;102477.47;5079953;27;45501;-73
2022/02/28 12:46:53;;;;;;;;;14.00;13.00;;;;;24.05;29.68;102469.72;5075129;27;45355;-73
2022/02/28 12:49:20;;;;;;;;;13.67;13.33;;;;;23.89;29.70;102460.19;5064896;28;46744;-73
2022/02/28 12:51:48;;;;;;;;;13.33;13.00;;;;;23.76;29.98;102463.09;5071511;27;45564;-73
2022/02/28 12:54:17;;;;;;;;;20.67;13.00;;;;;23.72;32.04;102456.19;5077236;27;45680;-74
2022/02/28 12:56:50;;;;;;;;;12.00;12.00;;;;;23.78;33.06;102458.38;5069992;27;45625;-72
2022/02/28 12:59:16;;;;;;;;;9.67;9.33;;;;;23.86;33.15;102455.00;5066354;28;45555;-74
2022/02/28 13:01:43;;;;;;;;;10.67;9.67;;;;;23.94;33.57;102449.81;5066113;27;45581;-74
2022/02/28 13:04:10;;;;;;;;;10.00;10.00;;;;;24.04;33.53;102447.16;5065331;27;45444;-73
2022/02/28 13:06:38;;;;;;;;;10.00;9.00;;;;;24.13;33.80;102447.41;5061572;28;45806;-74
2022/02/28 13:09:07;;;;;;;;;13.67;10.33;;;;;24.21;33.80;102444.91;5069288;27;45466;-74
2022/02/28 13:11:54;;;;;;;;;14.33;10.00;;;;;24.33;33.77;102434.84;5066602;27;45454;-74
2022/02/28 13:14:22;;;;;;;;;10.00;9.00;;;;;24.43;33.50;102430.34;5069098;27;45470;-74
2022/02/28 13:16:51;;;;;;;;;9.00;9.00;;;;;24.53;33.55;102430.41;5067155;28;45458;-75
2022/02/28 13:19:20;;;;;;;;;10.33;8.67;;;;;24.60;33.67;102426.13;5066876;27;45672;-75
2022/02/28 13:21:55;;;;;;;;;9.33;8.67;;;;;24.69;33.76;102434.47;5066250;27;45751;-78
2022/02/28 13:24:24;;;;;;;;;11.00;10.00;;;;;24.77;33.56;102429.19;5066812;27;45452;-78
2022/02/28 13:26:51;;;;;;;;;11.67;10.33;;;;;24.87;33.64;102418.44;5064383;28;45624;-78
2022/02/28 13:29:18;;;;;;;;;11.00;11.00;;;;;24.97;33.52;102416.59;5063322;27;46764;-77
2022/02/28 13:31:53;;;;;;;;;11.00;9.00;;;;;25.09;33.51;102421.94;5065566;27;46646;-78
2022/02/28 13:34:21;;;;;;;;;14.00;12.00;;;;;25.18;33.42;102422.97;5063805;27;45516;-81
2022/02/28 13:36:53;;;;;;;;;8.67;7.33;;;;;25.23;33.63;102416.13;5060541;27;45377;-84
2022/02/28 13:39:24;;;;;;;;;13.67;9.33;;;;;25.35;34.01;102408.69;5062227;27;46441;-78
2022/02/28 13:41:52;;;;;;;;;12.00;10.33;;;;;25.46;34.02;102406.84;5057190;27;45377;-78
2022/02/28 13:44:19;;;;;;;;;10.67;9.00;;;;;25.53;34.09;102397.09;5064713;27;45830;-78
2022/02/28 13:46:55;;;;;;;;;13.00;10.00;;;;;25.64;34.33;102399.75;5063209;27;45466;-82
2022/02/28 13:49:21;;;;;;;;;8.33;7.33;;;;;25.72;34.13;102409.03;5069643;27;46605;-83
2022/02/28 13:51:47;;;;;;;;;10.00;8.33;;;;;25.78;34.27;102412.03;5067206;27;45769;-76
2022/02/28 13:54:14;;;;;;;;;10.00;8.67;;;;;25.86;33.96;102408.59;5073619;27;45640;-84
2022/02/28 13:56:39;;;;;;;;;10.00;6.67;;;;;25.93;34.23;102408.88;5079229;27;45657;-84
2022/02/28 13:59:16;;;;;;;;;11.00;9.67;;;;;26.01;34.26;102410.88;5060621;28;45973;-83
2022/02/28 14:02:08;;;;;;;;;11.00;7.33;;;;;26.09;34.27;102416.44;5086091;27;46223;-80
2022/02/28 14:04:44;;;;;;;;;10.33;8.33;;;;;26.15;34.40;102409.53;5069465;27;45547;-80
2022/02/28 14:07:11;;;;;;;;;9.00;9.00;;;;;26.19;34.08;102410.97;5072747;27;45538;-81
2022/02/28 14:09:38;;;;;;;;;8.67;8.67;;;;;26.22;34.50;102404.38;5067391;27;45719;-86
2022/02/28 14:12:05;;;;;;;;;8.33;8.33;;;;;26.27;34.06;102397.53;5069853;27;45484;-83
2022/02/28 14:14:31;;;;;;;;;6.67;6.67;;;;;26.30;33.80;102396.38;5073508;27;46057;-78
2022/02/28 14:17:04;;;;;;;;;6.33;6.33;;;;;26.38;33.88;102399.22;5065797;27;45570;-86
2022/02/28 14:19:40;;;;;;;;;8.00;8.00;;;;;26.39;33.96;102398.22;5070888;27;46235;-82
2022/02/28 14:22:07;;;;;;;;;8.00;8.00;;;;;26.43;34.33;102396.91;5071916;27;45551;-86
2022/02/28 14:24:47;;;;;;;;;7.33;7.33;;;;;26.45;33.61;102385.88;5069213;27;45311;-80
2022/02/28 14:27:13;;;;;;;;;7.00;5.00;;;;;26.51;33.78;102395.31;5064685;27;45615;-78
2022/02/28 14:29:38;;;;;;;;;10.67;6.67;;;;;26.53;33.95;102385.97;5055555;28;46342;-77
2022/02/28 14:32:13;;;;;;;;;6.67;6.33;;;;;26.56;33.74;102387.53;5071912;27;45520;-79
2022/02/28 14:34:40;;;;;;;;;12.33;10.33;;;;;26.57;33.59;102390.13;5065390;28;45542;-78
2022/02/28 14:37:05;;;;;;;;;9.33;9.33;;;;;26.62;34.13;102388.81;5056240;27;45732;-75
2022/02/28 14:39:31;;;;;;;;;12.67;11.00;;;;;26.64;33.35;102379.47;5058440;28;46450;-77
2022/02/28 14:41:56;;;;;;;;;9.00;9.00;;;;;26.70;33.42;102372.59;5056628;27;45593;-79
2022/02/28 14:44:21;;;;;;;;;8.33;8.33;;;;;26.69;34.11;102368.16;5085565;27;45931;-79
2022/02/28 14:46:47;;;;;;;;;6.33;5.67;;;;;26.72;34.22;102376.00;5054593;27;45746;-78
2022/02/28 14:49:13;;;;;;;;;8.00;6.33;;;;;26.73;34.43;102375.00;5059180;27;46266;-80
2022/02/28 14:51:40;;;;;;;;;8.00;7.67;;;;;26.74;34.08;102378.59;5057822;27;45882;-81
2022/02/28 14:54:06;;;;;;;;;7.00;7.00;;;;;26.71;34.25;102374.31;5063292;27;45493;-79
2022/02/28 14:56:33;;;;;;;;;6.00;6.00;;;;;26.68;34.33;102378.19;5066977;27;45403;-78
2022/02/28 14:59:00;;;;;;;;;7.00;7.00;;;;;26.64;34.47;102365.03;5068518;28;46688;-76
2022/02/28 15:01:26;;;;;;;;;9.00;5.67;;;;;26.68;34.60;102371.88;5063752;27;46515;-76
2022/02/28 15:03:51;;;;;;;;;7.00;5.33;;;;;26.69;34.54;102365.44;5064095;27;45959;-77
2022/02/28 15:06:16;;;;;;;;;8.00;6.67;;;;;26.69;34.78;102368.16;5067301;28;50644;-76
2022/02/28 15:08:42;;;;;;;;;5.67;5.67;;;;;26.73;35.11;102371.44;5065590;27;45786;-77
2022/02/28 15:11:07;;;;;;;;;6.67;6.67;;;;;26.73;35.21;102372.28;5058420;27;45737;-71
2022/02/28 15:13:36;;;;;;;;;8.67;8.33;;;;;26.72;32.55;102372.44;5064066;27;45611;-71
2022/02/28 15:16:03;;;;;;;;;11.00;10.00;;;;;26.65;31.89;102377.63;5057884;27;45481;-71
2022/02/28 15:18:29;;;;;;;;;11.00;7.00;;;;;26.52;32.44;102378.81;5063771;27;46852;-71
2022/02/28 15:20:54;;;;;;;;;11.00;10.33;;;;;26.41;32.14;102382.56;5061221;27;45666;-71
2022/02/28 15:23:20;;;;;;;;;14.00;10.67;;;;;26.26;32.10;102382.22;5064489;27;45820;-71
2022/02/28 15:25:46;;;;;;;;;13.33;12.00;;;;;26.12;32.40;102377.22;5064157;27;45474;-78
2022/02/28 15:28:11;;;;;;;;;15.33;11.67;;;;;25.99;33.02;102374.81;5067614;28;46013;-81
2022/02/28 15:30:38;;;;;;;;;11.00;10.67;;;;;25.89;33.36;102367.50;5062900;27;45397;-79
2022/02/28 15:33:03;;;;;;;;;16.00;11.00;;;;;25.84;33.52;102366.22;5056320;28;45499;-76
2022/02/28 15:35:29;;;;;;;;;15.00;11.67;;;;;25.78;33.38;102359.50;5067853;27;45577;-79
2022/02/28 15:37:54;;;;;;;;;13.33;11.33;;;;;25.76;33.66;102367.78;5060557;27;46221;-79
2022/02/28 15:40:21;;;;;;;;;10.67;10.00;;;;;25.75;33.89;102365.25;5057693;27;45675;-74
2022/02/28 15:42:47;;;;;;;;;10.67;8.00;;;;;25.73;33.89;102367.22;5063975;27;45552;-77
2022/02/28 15:45:13;;;;;;;;;12.33;10.67;;;;;25.74;34.14;102368.94;5065548;27;46615;-74
2022/02/28 15:47:39;;;;;;;;;11.33;10.33;;;;;25.77;34.14;102376.81;5085397;27;45553;-72
2022/02/28 15:50:06;;;;;;;;;8.67;7.00;;;;;25.78;34.06;102376.69;5068720;27;45490;-73
2022/02/28 15:52:32;;;;;;;;;11.67;11.67;;;;;25.77;33.63;102374.09;5070873;27;45406;-73
2022/02/28 15:54:57;;;;;;;;;12.67;11.00;;;;;25.74;34.06;102369.81;5065056;27;45811;-74
2022/02/28 15:57:23;;;;;;;;;9.00;8.00;;;;;25.72;34.31;102369.09;5078716;27;45433;-75
2022/02/28 15:59:48;;;;;;;;;9.67;9.00;;;;;25.71;34.29;102363.81;5092427;27;50701;-74
2022/02/28 16:02:14;;;;;;;;;13.00;8.00;;;;;25.65;34.59;102360.66;5070452;27;45679;-75
2022/02/28 16:04:40;;;;;;;;;13.00;8.67;;;;;25.64;34.49;102358.09;5070169;27;45613;-75
2022/02/28 16:07:06;;;;;;;;;11.33;8.33;;;;;25.63;34.90;102362.66;5061651;27;46393;-70
2022/02/28 16:09:31;;;;;;;;;12.33;12.33;;;;;25.63;34.66;102356.38;5064054;27;45553;-74
2022/02/28 16:11:57;;;;;;;;;13.00;10.67;;;;;25.64;34.73;102358.09;5066788;27;45457;-74
2022/02/28 16:14:22;;;;;;;;;13.33;11.33;;;;;25.60;35.04;102357.53;5056011;28;45662;-74
2022/02/28 16:16:47;;;;;;;;;12.00;12.00;;;;;25.56;34.65;102352.50;5071991;27;46078;-74
2022/02/28 16:19:13;;;;;;;;;12.67;9.00;;;;;25.58;35.20;102342.34;5068240;27;50136;-75
2022/02/28 16:21:45;;;;;;;;;8.00;8.00;;;;;25.56;35.23;102337.06;5063693;27;45557;-74
2022/02/28 16:24:11;;;;;;;;;9.33;8.00;;;;;25.53;35.29;102338.16;5068529;27;45525;-80
2022/02/28 16:26:36;;;;;;;;;11.00;9.00;;;;;25.60;35.26;102338.50;5062250;27;46012;-74
2022/02/28 16:29:02;;;;;;;;;11.33;9.33;;;;;25.59;35.32;102344.06;5066703;27;45371;-76
2022/02/28 16:31:27;;;;;;;;;8.33;8.00;;;;;25.54;35.36;102336.28;5070646;27;45518;-79
2022/02/28 16:33:54;;;;;;;;;10.33;8.67;;;;;25.55;35.81;102340.78;5067958;27;45631;-73
2022/02/28 16:36:19;;;;;;;;;13.00;9.67;;;;;25.52;35.59;102338.31;5062854;27;46370;-76
2022/02/28 16:38:45;;;;;;;;;9.33;9.33;;;;;25.53;35.54;102343.59;5071380;27;46817;-78
2022/02/28 16:41:11;;;;;;;;;12.00;9.67;;;;;25.53;36.14;102338.16;5069649;27;45481;-76
2022/02/28 16:43:37;;;;;;;;;10.67;8.67;;;;;25.55;36.18;102345.31;5069212;27;45678;-76
2022/02/28 16:46:06;;;;;;;;;12.33;9.00;;;;;25.52;36.40;102341.03;5061982;27;45825;-82
2022/02/28 16:48:32;;;;;;;;;10.00;10.00;;;;;25.51;35.60;102336.59;5070421;27;45492;-77
2022/02/28 16:50:58;;;;;;;;;7.67;7.00;;;;;25.52;36.53;102343.75;5068405;28;45537;-80
2022/02/28 16:53:24;;;;;;;;;9.00;9.00;;;;;25.53;36.18;102346.31;5069434;27;45406;-84
2022/02/28 16:55:50;;;;;;;;;9.00;9.00;;;;;25.52;36.13;102349.19;5072736;27;46199;-78
2022/02/28 16:58:16;;;;;;;;;16.00;13.00;;;;;25.51;34.65;102345.59;5063385;27;45595;-72
2022/02/28 17:00:41;;;;;;;;;16.67;16.67;;;;;25.47;33.03;102346.88;5070295;27;45557;-72
2022/02/28 17:03:07;;;;;;;;;43.00;24.67;;;;;25.45;33.82;102345.31;5066897;27;45952;-74
2022/02/28 17:05:33;;;;;;;;;24.33;17.67;;;;;25.41;34.96;102341.19;5073387;27;47136;-73
2022/02/28 17:07:59;;;;;;;;;18.67;16.33;;;;;25.30;34.35;102332.16;5071240;27;45362;-72
2022/02/28 17:10:24;;;;;;;;;23.00;20.67;;;;;25.24;34.11;102338.16;5073665;27;45592;-72
2022/02/28 17:12:49;;;;;;;;;21.33;19.33;;;;;25.14;33.79;102340.88;5076117;27;50131;-74
2022/02/28 17:15:15;;;;;;;;;18.67;17.67;;;;;25.04;33.61;102339.97;5067089;27;47313;-74
2022/02/28 17:17:43;;;;;;;;;19.00;17.33;;;;;24.93;33.78;102332.84;5061447;27;45742;-74
2022/02/28 17:20:10;;;;;;;;;18.67;17.33;;;;;24.83;33.51;102338.22;5064572;27;45471;-74
2022/02/28 17:22:36;;;;;;;;;25.00;20.50;;;;;24.76;33.66;102340.59;5062561;27;45774;-72
2022/02/28 17:25:02;;;;;;;;;17.67;16.33;;;;;24.69;33.88;102339.44;5055227;27;45626;-75
2022/02/28 17:27:28;;;;;;;;;16.67;15.33;;;;;24.66;34.05;102345.16;5056275;27;45859;-80
2022/02/28 17:29:53;;;;;;;;;21.00;15.00;;;;;24.63;33.80;102339.97;5080219;27;46798;-82
2022/02/28 17:32:19;;;;;;;;;18.67;14.67;;;;;24.60;34.18;102349.25;5059799;27;45401;-90
2022/02/28 17:34:46;;;;;;;;;16.00;14.00;;;;;24.57;34.18;102342.25;5073299;27;47262;-90
2022/02/28 17:37:12;;;;;;;;;16.67;12.67;;;;;24.59;34.30;102351.13;5068146;27;45495;-86
2022/02/28 17:39:39;;;;;;;;;16.67;16.00;;;;;24.63;34.55;102356.25;5068655;27;45481;-89
2022/02/28 17:42:05;;;;;;;;;16.33;14.67;;;;;24.63;34.55;102356.25;5090367;27;46864;-83
2022/02/28 17:44:30;;;;;;;;;17.33;15.00;;;;;24.69;34.69;102363.88;5069789;27;45568;-80
2022/02/28 17:46:55;;;;;;;;;15.00;13.67;;;;;24.69;34.73;102359.28;5063489;27;46007;-80
2022/02/28 17:49:21;;;;;;;;;16.67;15.00;;;;;24.73;34.73;102360.75;5061232;27;45452;-81
2022/02/28 17:51:46;;;;;;;;;17.00;14.00;;;;;24.78;34.82;102367.63;5065179;27;45869;-84
2022/02/28 17:54:14;;;;;;;;;14.00;11.33;;;;;24.81;34.95;102380.94;5069134;27;46190;-83
2022/02/28 17:56:40;;;;;;;;;15.67;13.33;;;;;24.83;34.80;102376.25;5068857;27;46586;-86
2022/02/28 17:59:07;;;;;;;;;18.67;16.33;;;;;24.84;35.09;102386.97;5071065;27;45524;-86
2022/02/28 18:01:34;;;;;;;;;15.33;12.67;;;;;24.86;35.07;102384.13;5061154;27;45872;-87
2022/02/28 18:04:00;;;;;;;;;15.67;14.67;;;;;24.85;35.09;102385.13;5082039;27;46477;-87
2022/02/28 18:06:25;;;;;;;;;14.67;13.67;;;;;24.90;35.50;102395.56;5062287;27;45655;-88
2022/02/28 18:08:51;;;;;;;;;13.00;12.00;;;;;24.87;35.42;102391.28;5081012;27;45418;-87
2022/02/28 18:11:16;;;;;;;;;14.67;12.67;;;;;24.93;35.35;102395.28;5075055;27;45503;-81
2022/02/28 18:13:42;;;;;;;;;14.33;12.33;;;;;24.92;35.54;102396.28;5067134;27;46843;-83
2022/02/28 18:16:07;;;;;;;;;14.33;12.67;;;;;24.94;34.48;102392.44;5064048;27;45494;-72
2022/02/28 18:18:33;;;;;;;;;14.33;11.33;;;;;24.92;34.77;102390.84;5071289;27;48222;-73
2022/02/28 18:20:59;;;;;;;;;18.67;15.67;;;;;24.93;33.92;102395.28;5070473;27;45478;-73
2022/02/28 18:23:24;;;;;;;;;15.33;10.33;;;;;24.87;33.97;102391.28;5070806;27;45969;-72
2022/02/28 18:25:49;;;;;;;;;12.67;10.33;;;;;24.79;33.64;102385.63;5068813;28;45576;-73
2022/02/28 18:28:15;;;;;;;;;16.33;13.67;;;;;24.72;33.73;102390.75;5072907;27;45435;-72
2022/02/28 18:30:42;;;;;;;;;12.33;10.67;;;;;24.61;33.91;102397.16;5069769;27;45542;-72
2022/02/28 18:33:08;;;;;;;;;16.33;13.33;;;;;24.53;33.75;102392.41;5063019;28;45473;-72
2022/02/28 18:35:35;;;;;;;;;11.33;11.33;;;;;24.46;33.94;102397.50;5069806;27;45707;-72
2022/02/28 18:38:04;;;;;;;;;15.00;10.33;;;;;24.39;34.44;102395.47;5061572;27;48030;-72
2022/02/28 18:40:33;;;;;;;;;15.33;15.33;;;;;24.30;34.02;102392.56;5072937;27;45513;-72
2022/02/28 18:42:59;;;;;;;;;18.67;15.33;;;;;24.26;34.28;102395.66;5068792;27;46154;-72
2022/02/28 18:45:25;;;;;;;;;16.33;12.00;;;;;24.20;34.30;102388.94;5083449;27;45406;-72